Time;durP1;ratioP1;P1;durP2;ratioP2;P2;SDS_P1;SDS_P2;PMS_P1;PMS_P2;Temp;Humidity;BMP_temperature;BMP_pressure;BME280_temperature;BME280_humidity;BME280_pressure;Samples;Min_cycle;Max_cycle;Signal;HPM_P1;HPM_P2
2021/08/04 00:01:17;;;;;;;6.40;3.33;;;;;;;15.71;66.76;100679.03;5079895;28;20422;-42
2021/08/04 00:03:45;;;;;;;6.03;3.38;;;;;;;15.66;66.77;100668.22;5081484;28;20489;-45
2021/08/04 00:06:21;;;;;;;5.97;3.35;;;;;;;15.67;66.93;100669.84;5081413;28;20054;-41
2021/08/04 00:08:48;;;;;;;8.90;3.45;;;;;;;15.67;66.73;100678.22;5061659;28;20032;-43
2021/08/04 00:11:14;;;;;;;5.78;3.42;;;;;;;15.67;66.77;100675.41;5080735;28;20207;-44
2021/08/04 00:13:41;;;;;;;3.75;3.20;;;;;;;15.65;66.73;100669.38;5080381;28;20052;-40
2021/08/04 00:16:08;;;;;;;5.47;3.72;;;;;;;15.62;66.72;100675.75;5062454;28;20159;-44
2021/08/04 00:18:37;;;;;;;4.40;3.38;;;;;;;15.58;66.94;100675.72;5079743;28;20048;-41
2021/08/04 00:21:03;;;;;;;6.50;3.58;;;;;;;15.57;67.22;100674.09;5080539;28;20399;-43
2021/08/04 00:23:30;;;;;;;4.38;3.25;;;;;;;15.52;67.10;100671.63;5079383;28;20054;-41
2021/08/04 00:25:57;;;;;;;5.50;3.60;;;;;;;15.38;67.50;100681.81;5062815;28;20432;-43
2021/08/04 00:28:25;;;;;;;4.38;3.03;;;;;;;15.33;67.92;100684.94;5078921;28;20055;-42
2021/08/04 00:30:52;;;;;;;4.13;3.35;;;;;;;15.36;67.92;100672.97;5079427;28;20421;-41
2021/08/04 00:33:20;;;;;;;3.45;2.83;;;;;;;15.33;68.00;100682.91;5080493;28;20692;-41
2021/08/04 00:35:46;;;;;;;5.18;3.42;;;;;;;15.24;68.16;100685.19;5080450;28;20109;-42
2021/08/04 00:38:14;;;;;;;5.65;4.18;;;;;;;15.14;68.52;100677.50;5080070;28;20387;-41
2021/08/04 00:40:42;;;;;;;4.40;3.20;;;;;;;15.06;68.81;100675.78;5080220;28;20401;-43
2021/08/04 00:43:09;;;;;;;7.00;3.13;;;;;;;15.00;69.00;100683.69;5078647;28;20492;-43
2021/08/04 00:45:36;;;;;;;7.30;3.80;;;;;;;15.00;68.99;100675.31;5080268;28;20058;-42
2021/08/04 00:48:04;;;;;;;3.40;2.92;;;;;;;14.97;69.01;100684.44;5080790;28;20097;-42
2021/08/04 00:50:33;;;;;;;5.00;3.60;;;;;;;14.93;69.21;100689.13;5080054;28;20070;-41
2021/08/04 00:53:00;;;;;;;4.18;3.28;;;;;;;14.88;69.49;100692.25;5079279;28;20083;-41
2021/08/04 00:55:27;;;;;;;5.15;3.63;;;;;;;14.87;69.58;100696.22;5078584;28;20058;-42
2021/08/04 00:57:58;;;;;;;5.83;3.33;;;;;;;14.85;69.36;100687.41;5080474;28;20060;-41
2021/08/04 01:00:25;;;;;;;5.18;3.30;;;;;;;14.84;69.32;100680.25;5079574;28;20072;-41
2021/08/04 01:03:01;;;;;;;5.60;3.47;;;;;;;14.77;69.66;100677.38;5079869;28;20048;-41
2021/08/04 01:05:40;;;;;;;21.70;4.88;;;;;;;14.71;70.01;100692.78;5082959;28;20155;-49
2021/08/04 01:08:13;;;;;;;5.00;3.83;;;;;;;14.65;70.03;100680.34;5083351;28;20442;-42
2021/08/04 01:10:48;;;;;;;9.00;3.58;;;;;;;14.62;70.21;100679.13;5083737;28;20048;-42
2021/08/04 01:13:24;;;;;;;6.38;3.53;;;;;;;14.55;70.35;100676.22;5082268;28;20139;-42
2021/08/04 01:16:13;;;;;;;3.50;3.15;;;;;;;14.52;70.44;100678.94;5083850;28;20182;-47
2021/08/04 01:19:05;;;;;;;5.28;3.28;;;;;;;14.49;70.62;100669.34;5084141;28;20052;-43
2021/08/04 01:21:44;;;;;;;5.80;3.80;;;;;;;14.52;70.30;100673.38;5083367;28;20481;-44
2021/08/04 01:24:19;;;;;;;6.10;3.25;;;;;;;14.51;70.53;100677.31;5083027;28;20040;-43
2021/08/04 01:26:48;;;;;;;5.53;3.65;;;;;;;14.49;70.23;100676.91;5081284;28;20040;-41
2021/08/04 01:29:19;;;;;;;4.93;3.63;;;;;;;14.41;70.71;100666.81;5082878;28;20498;-44
2021/08/04 01:31:48;;;;;;;5.75;4.03;;;;;;;14.40;70.79;100668.78;5083246;28;20070;-50
2021/08/04 01:34:19;;;;;;;8.02;3.85;;;;;;;14.37;70.59;100665.97;5083268;28;20136;-42
2021/08/04 01:36:48;;;;;;;5.03;3.65;;;;;;;14.36;70.82;100667.13;5081834;28;20044;-43
2021/08/04 01:39:17;;;;;;;4.95;3.30;;;;;;;14.35;70.84;100662.75;5082620;28;20043;-46
2021/08/04 01:41:46;;;;;;;6.15;3.63;;;;;;;14.36;70.67;100658.78;5083485;28;20148;-41
2021/08/04 01:44:14;;;;;;;5.55;4.22;;;;;;;14.34;71.03;100656.38;5083380;28;20043;-44
2021/08/04 01:46:42;;;;;;;7.72;3.58;;;;;;;14.31;70.90;100651.56;5082417;28;20051;-42
2021/08/04 01:49:10;;;;;;;5.88;4.43;;;;;;;14.32;70.97;100655.13;5083248;28;20396;-44
2021/08/04 01:51:38;;;;;;;8.15;4.13;;;;;;;14.28;70.96;100654.22;5082611;28;20451;-43
2021/08/04 01:54:06;;;;;;;8.45;4.00;;;;;;;14.21;71.03;100654.13;5081752;28;20753;-42
2021/08/04 01:56:34;;;;;;;7.45;4.40;;;;;;;14.18;71.12;100658.47;5082457;28;20040;-42
2021/08/04 01:59:01;;;;;;;4.70;3.70;;;;;;;14.17;71.35;100650.47;5064079;28;20075;-46
2021/08/04 02:01:29;;;;;;;8.10;4.22;;;;;;;14.15;71.34;100664.75;5082427;28;20142;-44
2021/08/04 02:03:56;;;;;;;6.18;4.47;;;;;;;14.13;71.49;100649.59;5081960;28;20113;-44
2021/08/04 02:06:32;;;;;;;7.25;4.38;;;;;;;14.12;71.65;100653.56;5082651;28;20042;-42
2021/08/04 02:09:33;;;;;;;5.07;3.72;;;;;;;14.08;72.05;100649.91;5065413;28;20047;-42
2021/08/04 02:12:04;;;;;;;9.52;4.35;;;;;;;14.08;71.88;100653.50;5073283;28;20051;-43
2021/08/04 02:14:58;;;;;;;7.53;4.60;;;;;;;14.04;72.04;100658.19;5081014;28;20187;-42
2021/08/04 02:17:32;;;;;;;6.22;4.88;;;;;;;14.02;72.15;100644.66;5082269;28;20052;-42
2021/08/04 02:20:17;;;;;;;5.55;3.67;;;;;;;13.99;72.43;100652.94;5082901;28;20036;-45
2021/08/04 02:22:57;;;;;;;4.72;3.90;;;;;;;14.01;72.11;100658.94;5081757;28;20044;-46
2021/08/04 02:25:29;;;;;;;6.28;4.53;;;;;;;13.98;72.14;100654.91;5082279;28;20381;-42
2021/08/04 02:27:58;;;;;;;6.93;4.03;;;;;;;14.04;72.17;100663.75;5081337;28;20047;-41
2021/08/04 02:30:27;;;;;;;5.78;4.55;;;;;;;14.06;72.05;100663.41;5082146;28;20072;-44
2021/08/04 02:32:54;;;;;;;8.20;3.97;;;;;;;14.04;72.10;100659.00;5081351;28;20054;-41
2021/08/04 02:35:22;;;;;;;8.13;4.18;;;;;;;14.06;72.06;100660.63;5079829;28;20419;-43
2021/08/04 02:37:49;;;;;;;5.72;3.88;;;;;;;14.02;72.07;100661.38;5081256;28;20135;-41
2021/08/04 02:40:17;;;;;;;6.60;4.35;;;;;;;13.99;72.36;100658.50;5081653;28;20721;-42
2021/08/04 02:42:45;;;;;;;8.77;5.78;;;;;;;14.01;72.41;100656.97;5081788;28;20040;-41
2021/08/04 02:45:13;;;;;;;7.75;4.60;;;;;;;14.03;72.19;100656.59;5081310;28;20056;-49
2021/08/04 02:47:41;;;;;;;9.27;6.55;;;;;;;13.99;72.41;100645.41;5080372;28;20066;-40
2021/08/04 02:50:08;;;;;;;10.32;6.50;;;;;;;13.98;72.77;100641.00;5080783;28;20130;-42
2021/08/04 02:52:36;;;;;;;13.20;6.68;;;;;;;13.96;72.65;100640.56;5080749;28;20353;-42
2021/08/04 02:55:04;;;;;;;12.50;7.05;;;;;;;13.95;72.78;100643.72;5081683;28;20097;-41
2021/08/04 02:57:30;;;;;;;9.65;6.43;;;;;;;13.95;72.93;100650.06;5081747;28;20110;-41
2021/08/04 02:59:57;;;;;;;12.30;5.50;;;;;;;14.03;72.63;100651.03;5081469;28;20210;-42
2021/08/04 03:02:24;;;;;;;9.75;5.15;;;;;;;14.12;72.46;100642.41;5081108;28;20101;-44
2021/08/04 03:04:52;;;;;;;10.15;5.30;;;;;;;14.11;72.62;100646.41;5081259;28;20055;-41
2021/08/04 03:07:18;;;;;;;8.65;5.22;;;;;;;14.06;72.86;100644.69;5081737;28;20058;-41
2021/08/04 03:09:46;;;;;;;9.30;5.68;;;;;;;14.10;72.76;100650.34;5081693;28;20048;-41
2021/08/04 03:12:12;;;;;;;8.75;5.28;;;;;;;14.13;72.85;100649.59;5081046;28;20040;-43
2021/08/04 03:14:39;;;;;;;9.30;5.55;;;;;;;14.14;72.77;100640.88;5081741;28;20150;-42
2021/08/04 03:17:06;;;;;;;11.23;5.60;;;;;;;14.18;72.86;100650.09;5081408;28;20062;-42
2021/08/04 03:19:34;;;;;;;10.40;4.97;;;;;;;14.23;72.78;100637.84;5080723;28;20043;-42
2021/08/04 03:22:01;;;;;;;8.48;5.90;;;;;;;14.22;72.94;100639.81;5080623;28;21907;-42
2021/08/04 03:24:29;;;;;;;10.55;5.20;;;;;;;14.19;73.04;100634.22;5080130;28;20063;-42
2021/08/04 03:26:56;;;;;;;6.10;4.55;;;;;;;14.18;73.26;100635.38;5080326;28;20870;-42
2021/08/04 03:29:24;;;;;;;9.00;4.65;;;;;;;14.24;73.18;100625.53;5062390;28;20101;-43
2021/08/04 03:31:51;;;;;;;6.32;4.47;;;;;;;14.28;73.02;100637.53;5081053;28;20083;-43
2021/08/04 03:34:19;;;;;;;9.00;4.75;;;;;;;14.27;73.12;100639.50;5063343;28;20044;-45
2021/08/04 03:36:47;;;;;;;7.10;4.47;;;;;;;14.24;73.16;100639.47;5080110;28;20488;-45
2021/08/04 03:39:14;;;;;;;6.35;4.88;;;;;;;14.27;73.06;100635.94;5063630;28;20068;-42
2021/08/04 03:41:41;;;;;;;6.68;5.15;;;;;;;14.32;73.00;100650.34;5080105;28;20051;-41
2021/08/04 03:44:08;;;;;;;8.82;5.00;;;;;;;14.40;72.63;100651.31;5080356;28;20085;-42
2021/08/04 03:46:35;;;;;;;7.72;4.97;;;;;;;14.43;72.57;100642.16;5080182;28;20040;-44
2021/08/04 03:49:02;;;;;;;9.43;5.22;;;;;;;14.40;72.68;100645.72;5082421;28;20512;-41
2021/08/04 03:51:29;;;;;;;7.00;4.72;;;;;;;14.33;72.99;100643.63;5080727;28;20067;-42
2021/08/04 03:53:56;;;;;;;7.43;4.32;;;;;;;14.32;73.08;100636.44;5063022;28;20048;-42
2021/08/04 03:56:23;;;;;;;7.65;5.18;;;;;;;14.30;73.30;100649.91;5080740;28;20058;-47
2021/08/04 03:58:50;;;;;;;9.73;4.90;;;;;;;14.27;73.39;100649.84;5079804;28;20051;-43
2021/08/04 04:01:16;;;;;;;10.35;4.95;;;;;;;14.25;73.53;100650.22;5080364;28;20448;-43
2021/08/04 04:03:44;;;;;;;8.25;5.20;;;;;;;14.26;73.78;100649.03;5080303;28;20424;-48
2021/08/04 04:06:11;;;;;;;9.27;5.00;;;;;;;14.25;73.72;100654.97;5080214;28;20059;-43
2021/08/04 04:08:38;;;;;;;7.95;5.07;;;;;;;14.28;73.90;100657.00;5062226;28;20481;-45
2021/08/04 04:11:06;;;;;;;6.55;5.38;;;;;;;14.27;73.64;100661.78;5080760;28;20102;-40
2021/08/04 04:13:33;;;;;;;8.43;5.32;;;;;;;14.26;73.83;100659.38;5080876;28;20416;-42
2021/08/04 04:16:00;;;;;;;8.02;5.25;;;;;;;14.23;74.17;100660.13;5079817;28;20726;-43
2021/08/04 04:18:27;;;;;;;7.13;4.90;;;;;;;14.26;73.89;100662.16;5080078;28;20675;-44
2021/08/04 04:20:54;;;;;;;7.35;5.65;;;;;;;14.22;73.84;100667.66;5081009;28;20044;-42
2021/08/04 04:23:21;;;;;;;7.57;5.50;;;;;;;14.19;74.03;100660.03;5080497;28;20127;-42
2021/08/04 04:25:48;;;;;;;8.60;5.03;;;;;;;14.19;73.96;100657.25;5081029;28;20490;-46
2021/08/04 04:28:17;;;;;;;7.53;5.38;;;;;;;14.19;74.21;100667.63;5062000;28;20044;-42
2021/08/04 04:30:44;;;;;;;7.18;4.82;;;;;;;14.19;74.15;100660.03;5080316;28;20135;-42
2021/08/04 04:33:11;;;;;;;8.25;4.75;;;;;;;14.19;74.21;100664.84;5080324;28;20096;-43
2021/08/04 04:35:38;;;;;;;6.18;4.28;;;;;;;14.23;74.01;100660.13;5079654;28;20158;-44
2021/08/04 04:38:05;;;;;;;7.88;5.70;;;;;;;14.20;74.26;100666.41;5082614;28;20054;-45
2021/08/04 04:40:31;;;;;;;9.27;5.05;;;;;;;14.19;74.25;100665.59;5083490;28;20526;-45
2021/08/04 04:42:58;;;;;;;11.02;5.20;;;;;;;14.22;74.17;100664.06;5084074;28;20058;-47
2021/08/04 04:45:25;;;;;;;12.07;4.95;;;;;;;14.19;74.37;100667.63;5084086;28;20047;-41
2021/08/04 04:47:51;;;;;;;6.93;4.50;;;;;;;14.18;74.59;100671.56;5083851;28;20048;-43
2021/08/04 04:50:18;;;;;;;7.85;4.85;;;;;;;14.20;74.56;100663.63;5084511;28;20138;-44
2021/08/04 04:52:45;;;;;;;7.68;5.07;;;;;;;14.21;74.59;100673.63;5083810;28;20047;-41
2021/08/04 04:55:13;;;;;;;8.43;4.65;;;;;;;14.25;74.29;100675.28;5084424;28;20048;-46
2021/08/04 04:57:40;;;;;;;5.65;4.10;;;;;;;14.27;74.76;100672.91;5083745;28;20142;-41
2021/08/04 05:00:09;;;;;;;7.07;5.00;;;;;;;14.28;74.43;100668.97;5082863;28;20073;-45
2021/08/04 05:02:38;;;;;;;7.45;4.65;;;;;;;14.26;74.56;100670.50;5083723;28;20032;-41
2021/08/04 05:05:07;;;;;;;6.25;4.53;;;;;;;14.25;74.57;100675.28;5084382;28;20059;-44
2021/08/04 05:07:34;;;;;;;6.90;5.28;;;;;;;14.22;74.87;100664.88;5084603;28;20043;-42
2021/08/04 05:10:02;;;;;;;6.90;4.45;;;;;;;14.21;74.88;100670.81;5083169;28;20040;-42
2021/08/04 05:12:29;;;;;;;6.88;4.38;;;;;;;14.23;74.59;100671.25;5083063;28;20143;-42
2021/08/04 05:14:56;;;;;;;6.95;4.47;;;;;;;14.27;74.57;100672.13;5083818;28;20071;-42
2021/08/04 05:17:22;;;;;;;6.68;4.68;;;;;;;14.29;74.64;100667.00;5082786;28;20129;-46
2021/08/04 05:19:51;;;;;;;5.53;4.10;;;;;;;14.30;74.60;100660.22;5083733;28;20094;-41
2021/08/04 05:22:19;;;;;;;7.05;4.68;;;;;;;14.32;74.53;100664.28;5083810;28;20054;-43
2021/08/04 05:24:45;;;;;;;6.30;3.85;;;;;;;14.32;74.50;100663.50;5083308;28;20043;-42
2021/08/04 05:27:12;;;;;;;7.10;4.72;;;;;;;14.36;74.43;100664.34;5082906;28;20044;-41
2021/08/04 05:29:41;;;;;;;7.40;4.22;;;;;;;14.35;74.42;100659.97;5082419;28;20101;-47
2021/08/04 05:32:08;;;;;;;6.88;4.20;;;;;;;14.39;74.41;100652.47;5083092;28;20143;-44
2021/08/04 05:34:35;;;;;;;9.25;4.20;;;;;;;14.43;74.30;100647.75;5082101;28;20139;-45
2021/08/04 05:37:02;;;;;;;8.30;4.32;;;;;;;14.49;73.90;100646.25;5083495;28;20382;-47
2021/08/04 05:39:29;;;;;;;9.10;4.85;;;;;;;14.53;74.15;100644.34;5083242;28;20036;-44
2021/08/04 05:41:56;;;;;;;6.13;3.50;;;;;;;14.58;73.85;100644.84;5082945;28;20498;-46
2021/08/04 05:44:23;;;;;;;6.15;3.95;;;;;;;14.64;73.74;100645.28;5083360;28;20242;-46
2021/08/04 05:46:51;;;;;;;6.10;3.80;;;;;;;14.66;73.70;100644.94;5083162;28;20075;-42
2021/08/04 05:49:18;;;;;;;4.78;4.07;;;;;;;14.69;73.63;100650.56;5081530;28;20470;-43
2021/08/04 05:51:44;;;;;;;5.00;3.58;;;;;;;14.72;73.41;100644.22;5083096;28;20893;-42
2021/08/04 05:54:11;;;;;;;6.93;3.75;;;;;;;14.75;73.42;100643.47;5083370;28;20044;-46
2021/08/04 05:56:38;;;;;;;8.23;5.32;;;;;;;14.80;73.53;100645.94;5082431;28;20040;-41
2021/08/04 05:59:05;;;;;;;7.00;3.53;;;;;;;14.83;73.23;100642.41;5083555;28;20044;-43
2021/08/04 06:01:31;;;;;;;4.63;3.88;;;;;;;14.89;73.45;100657.63;5082216;28;20040;-43
2021/08/04 06:03:59;;;;;;;4.75;3.38;;;;;;;14.91;73.51;100649.69;5082366;28;20052;-43
2021/08/04 06:06:28;;;;;;;7.05;3.78;;;;;;;14.91;73.41;100644.09;5083189;28;20048;-43
2021/08/04 06:08:56;;;;;;;8.27;4.20;;;;;;;14.93;73.39;100660.47;5083041;28;20036;-46
2021/08/04 06:11:27;;;;;;;5.47;3.88;;;;;;;14.95;73.39;100655.31;5082265;28;20482;-41
2021/08/04 06:13:53;;;;;;;5.40;3.92;;;;;;;14.96;73.37;100657.72;5082432;28;20062;-44
2021/08/04 06:16:20;;;;;;;8.80;4.05;;;;;;;15.00;73.41;100647.44;5082521;28;20393;-42
2021/08/04 06:18:48;;;;;;;6.63;4.38;;;;;;;15.03;73.27;100655.03;5082698;28;20124;-46
2021/08/04 06:21:19;;;;;;;6.43;4.78;;;;;;;15.06;73.08;100653.50;5064015;28;20048;-41
2021/08/04 06:23:48;;;;;;;7.30;4.85;;;;;;;15.08;73.21;100645.53;5082221;28;20173;-46
2021/08/04 06:26:16;;;;;;;8.93;4.60;;;;;;;15.09;73.39;100650.72;5081843;28;20051;-49
2021/08/04 06:28:43;;;;;;;8.45;5.28;;;;;;;15.14;73.30;100649.63;5081506;28;20036;-43
2021/08/04 06:31:11;;;;;;;10.40;4.60;;;;;;;15.19;73.38;100646.50;5063646;28;20052;-47
2021/08/04 06:33:38;;;;;;;8.77;4.63;;;;;;;15.25;73.39;100648.56;5074882;28;20138;-47
2021/08/04 06:36:06;;;;;;;6.55;5.00;;;;;;;15.32;73.34;100644.25;5081563;28;20071;-42
2021/08/04 06:38:33;;;;;;;8.95;4.70;;;;;;;15.41;73.25;100642.00;5081308;28;20481;-45
2021/08/04 06:41:00;;;;;;;7.32;5.28;;;;;;;15.51;73.17;100649.72;5082348;28;20040;-43
2021/08/04 06:43:28;;;;;;;7.47;5.15;;;;;;;15.57;73.07;100657.34;5081440;28;20066;-44
2021/08/04 06:45:56;;;;;;;10.32;5.20;;;;;;;15.61;72.98;100649.84;5064340;28;20397;-44
2021/08/04 06:48:23;;;;;;;13.65;5.40;;;;;;;15.65;73.08;100644.28;5081043;28;20048;-43
2021/08/04 06:50:49;;;;;;;10.38;5.22;;;;;;;15.66;73.11;100648.69;5080794;28;20115;-45
2021/08/04 06:53:16;;;;;;;15.60;5.88;;;;;;;15.70;73.19;100641.94;5081571;28;20040;-43
2021/08/04 06:55:44;;;;;;;8.85;5.50;;;;;;;15.71;73.26;100640.78;5062619;28;20047;-42
2021/08/04 06:58:10;;;;;;;8.20;4.93;;;;;;;15.75;72.97;100640.81;5081016;28;20136;-43
2021/08/04 07:00:39;;;;;;;9.02;5.50;;;;;;;15.80;72.98;100643.25;5080853;28;20052;-43
2021/08/04 07:03:06;;;;;;;9.43;5.03;;;;;;;15.86;72.86;100643.72;5080740;28;20075;-42
2021/08/04 07:05:34;;;;;;;9.82;6.45;;;;;;;15.93;72.74;100641.00;5080888;28;20044;-43
2021/08/04 07:08:04;;;;;;;9.18;5.03;;;;;;;15.96;72.91;100648.59;5081477;28;20044;-44
2021/08/04 07:10:49;;;;;;;9.27;5.82;;;;;;;16.00;72.86;100636.28;5080795;28;20047;-43
2021/08/04 07:13:16;;;;;;;10.23;5.65;;;;;;;16.09;72.82;100636.78;5081463;28;20055;-42
2021/08/04 07:15:42;;;;;;;10.32;5.45;;;;;;;16.20;72.71;100646.03;5080450;28;20132;-47
2021/08/04 07:18:09;;;;;;;9.10;5.15;;;;;;;16.30;72.59;100639.75;5080383;28;20688;-43
2021/08/04 07:20:37;;;;;;;9.68;5.30;;;;;;;16.42;72.57;100642.25;5081424;28;20044;-42
2021/08/04 07:23:05;;;;;;;11.05;5.95;;;;;;;16.57;72.75;100640.41;5079934;28;20106;-44
2021/08/04 07:25:33;;;;;;;6.75;4.97;;;;;;;16.74;72.75;100642.50;5063659;28;20320;-43
2021/08/04 07:28:00;;;;;;;8.27;5.05;;;;;;;16.91;72.74;100639.03;5080395;28;21248;-46
2021/08/04 07:30:28;;;;;;;8.13;4.95;;;;;;;17.09;72.79;100644.72;5079887;28;20050;-42
2021/08/04 07:32:55;;;;;;;10.98;5.32;;;;;;;17.21;72.36;100644.34;5080561;28;20401;-43
2021/08/04 07:35:22;;;;;;;9.43;5.50;;;;;;;17.31;72.37;100638.03;5079931;28;20047;-43
2021/08/04 07:37:49;;;;;;;9.05;5.10;;;;;;;17.38;72.01;100638.06;5080092;28;20036;-43
2021/08/04 07:40:18;;;;;;;10.32;5.95;;;;;;;17.49;71.94;100644.50;5081305;28;20436;-45
2021/08/04 07:42:46;;;;;;;9.15;6.38;;;;;;;17.58;71.95;100630.94;5062712;28;20054;-44
2021/08/04 07:45:14;;;;;;;9.20;5.50;;;;;;;17.68;71.72;100639.78;5079940;28;20036;-42
2021/08/04 07:47:41;;;;;;;9.90;5.10;;;;;;;17.76;71.72;100638.63;5079779;28;20188;-48
2021/08/04 07:50:10;;;;;;;8.63;5.00;;;;;;;17.79;71.72;100635.03;5080431;28;20048;-42
2021/08/04 07:52:37;;;;;;;7.65;5.00;;;;;;;17.85;71.09;100644.63;5079612;28;20051;-44
2021/08/04 07:55:06;;;;;;;8.70;4.53;;;;;;;17.89;71.06;100642.66;5079363;28;20063;-42
2021/08/04 07:57:34;;;;;;;11.55;6.47;;;;;;;17.93;70.72;100640.63;5080078;28;20511;-46
2021/08/04 08:00:02;;;;;;;10.70;5.30;;;;;;;17.97;70.72;100638.66;5080617;28;20389;-42
2021/08/04 08:02:29;;;;;;;9.45;5.88;;;;;;;17.99;70.38;100644.66;5080542;28;20508;-43
2021/08/04 08:04:57;;;;;;;10.63;4.97;;;;;;;18.01;70.24;100647.84;5080357;28;20039;-43
2021/08/04 08:07:24;;;;;;;9.48;5.45;;;;;;;18.03;69.99;100640.66;5079821;28;20567;-45
2021/08/04 08:09:52;;;;;;;14.13;6.38;;;;;;;18.08;69.52;100645.09;5080516;28;20455;-46
2021/08/04 08:12:20;;;;;;;10.27;6.70;;;;;;;18.12;69.64;100641.06;5081177;28;20570;-46
2021/08/04 08:14:46;;;;;;;8.07;6.22;;;;;;;18.16;69.67;100646.69;5084512;28;20828;-45
2021/08/04 08:17:13;;;;;;;11.65;5.97;;;;;;;18.17;69.46;100648.28;5084807;28;20040;-41
2021/08/04 08:19:40;;;;;;;12.75;6.68;;;;;;;18.21;69.56;100657.50;5066416;28;20062;-42
2021/08/04 08:22:07;;;;;;;9.32;6.45;;;;;;;18.26;69.42;100659.91;5085126;28;20062;-46
2021/08/04 08:24:36;;;;;;;9.63;6.30;;;;;;;18.30;68.99;100663.50;5084788;28;20143;-42
2021/08/04 08:27:03;;;;;;;13.52;6.82;;;;;;;18.36;68.91;100655.50;5084854;28;20044;-42
2021/08/04 08:29:30;;;;;;;13.20;5.80;;;;;;;18.42;68.74;100646.31;5084137;28;20193;-43
2021/08/04 08:31:57;;;;;;;12.65;6.63;;;;;;;18.55;68.47;100655.94;5083222;28;20040;-45
2021/08/04 08:34:25;;;;;;;10.43;4.97;;;;;;;18.75;68.32;100653.50;5084147;28;20044;-42
2021/08/04 08:36:51;;;;;;;10.82;5.60;;;;;;;19.07;68.30;100651.44;5083413;28;20047;-44
2021/08/04 08:39:18;;;;;;;8.07;4.30;;;;;;;19.64;68.03;100657.69;5084811;28;20396;-43
2021/08/04 08:41:45;;;;;;;9.98;4.72;;;;;;;20.20;67.55;100647.31;5084149;28;20050;-44
2021/08/04 08:44:12;;;;;;;11.25;5.70;;;;;;;21.00;66.00;100651.41;5084803;28;20144;-46
2021/08/04 08:46:40;;;;;;;6.47;4.20;;;;;;;21.41;64.59;100647.78;5084368;28;20205;-48
2021/08/04 08:49:07;;;;;;;9.82;5.10;;;;;;;21.55;63.56;100641.97;5083839;28;20386;-47
2021/08/04 08:51:36;;;;;;;5.72;4.30;;;;;;;21.42;62.46;100650.16;5084780;28;20058;-48
2021/08/04 08:54:06;;;;;;;6.10;4.35;;;;;;;21.27;62.02;100642.28;5082346;28;20043;-46
2021/08/04 08:56:32;;;;;;;7.05;4.53;;;;;;;21.11;61.41;100634.44;5083155;28;20040;-43
2021/08/04 08:58:59;;;;;;;6.95;3.85;;;;;;;21.38;61.58;100637.34;5083455;28;20044;-44
2021/08/04 09:01:39;;;;;;;9.32;4.38;;;;;;;21.98;60.93;100637.34;5082973;28;20044;-45
2021/08/04 09:04:10;;;;;;;10.35;4.65;;;;;;;22.47;60.51;100637.78;5083510;28;20056;-43
2021/08/04 09:06:57;;;;;;;6.35;4.63;;;;;;;22.58;59.40;100636.38;5083941;28;20085;-43
2021/08/04 09:09:26;;;;;;;5.70;4.22;;;;;;;22.97;59.11;100627.22;5083674;28;20032;-42
2021/08/04 09:11:56;;;;;;;8.05;4.10;;;;;;;23.48;58.02;100620.19;5083980;28;20040;-45
2021/08/04 09:14:29;;;;;;;7.10;4.10;;;;;;;24.01;56.52;100625.41;5082946;28;20040;-45
2021/08/04 09:16:59;;;;;;;4.43;4.03;;;;;;;24.37;55.36;100631.06;5083545;28;20139;-51
2021/08/04 09:19:28;;;;;;;5.10;3.90;;;;;;;24.43;55.13;100617.97;5083040;28;20036;-44
2021/08/04 09:22:27;;;;;;;6.10;3.95;;;;;;;24.65;52.28;100619.00;5084888;28;20109;-43
2021/08/04 09:25:05;;;;;;;5.03;4.13;;;;;;;24.51;52.57;100621.41;5083247;28;20058;-48
2021/08/04 09:27:48;;;;;;;5.95;3.90;;;;;;;24.15;52.36;100615.81;5064602;28;20076;-43
2021/08/04 09:30:29;;;;;;;7.70;4.03;;;;;;;23.98;52.62;100619.84;5082763;28;20166;-43
2021/08/04 09:33:19;;;;;;;5.15;3.67;;;;;;;23.85;52.94;100624.59;5081717;28;20151;-44
2021/08/04 09:35:51;;;;;;;4.65;3.47;;;;;;;23.56;53.46;100624.44;5082801;28;20048;-42
2021/08/04 09:38:19;;;;;;;6.25;3.80;;;;;;;23.31;53.50;100624.94;5083036;28;20050;-45
2021/08/04 09:41:18;;;;;;;5.30;3.88;;;;;;;22.98;52.59;100626.78;5082220;28;20048;-44
2021/08/04 09:44:01;;;;;;;6.13;3.17;;;;;;;22.72;53.84;100627.69;5083220;28;20052;-48
2021/08/04 09:46:33;;;;;;;5.60;3.70;;;;;;;22.43;53.83;100627.34;5083126;28;20427;-43
2021/08/04 09:49:19;;;;;;;4.13;3.63;;;;;;;22.20;54.01;100616.06;5082347;28;20054;-50
2021/08/04 09:52:02;;;;;;;7.07;3.78;;;;;;;22.23;54.44;100615.22;5082136;28;20032;-50
2021/08/04 09:54:44;;;;;;;6.13;3.58;;;;;;;22.32;55.01;100612.63;5082152;28;20046;-42
2021/08/04 09:57:11;;;;;;;5.50;4.22;;;;;;;22.50;55.27;100605.91;5063011;28;20139;-44
2021/08/04 09:59:38;;;;;;;7.78;3.75;;;;;;;22.66;54.39;100608.88;5082151;28;20059;-44
2021/08/04 10:02:05;;;;;;;5.10;3.20;;;;;;;22.79;54.50;100607.81;5081816;28;20035;-47
2021/08/04 10:04:32;;;;;;;5.32;3.10;;;;;;;23.01;54.20;100608.19;5082072;28;20153;-42
2021/08/04 10:07:09;;;;;;;4.70;3.78;;;;;;;23.32;53.48;100605.97;5082241;28;20116;-45
2021/08/04 10:09:36;;;;;;;4.32;2.70;;;;;;;23.67;53.57;100599.53;5081576;28;20125;-45
2021/08/04 10:12:04;;;;;;;6.45;3.80;;;;;;;23.95;52.95;100589.63;5081673;28;20054;-48
2021/08/04 10:14:34;;;;;;;5.65;3.35;;;;;;;24.37;52.21;100585.78;5082034;28;20073;-46
2021/08/04 10:17:04;;;;;;;6.13;3.75;;;;;;;24.53;52.34;100582.13;5082069;28;20047;-44
2021/08/04 10:19:32;;;;;;;3.90;3.20;;;;;;;24.58;51.84;100584.41;5064474;28;20461;-42
2021/08/04 10:22:01;;;;;;;4.72;3.25;;;;;;;24.60;51.24;100587.59;5082396;28;20477;-44
2021/08/04 10:24:29;;;;;;;6.32;3.20;;;;;;;24.59;50.91;100592.50;5082821;28;20047;-49
2021/08/04 10:26:58;;;;;;;4.20;3.58;;;;;;;24.68;50.15;100577.66;5081507;28;20054;-45
2021/08/04 10:29:26;;;;;;;4.50;3.50;;;;;;;24.60;50.22;100574.25;5081312;28;20245;-43
2021/08/04 10:31:52;;;;;;;4.88;3.45;;;;;;;24.38;50.39;100581.72;5082606;28;21004;-44
2021/08/04 10:34:27;;;;;;;6.70;3.72;;;;;;;23.97;50.36;100573.00;5081356;28;20043;-47
2021/08/04 10:36:58;;;;;;;3.75;3.40;;;;;;;23.61;51.21;100579.50;5080787;28;20044;-46
2021/08/04 10:39:26;;;;;;;5.25;3.65;;;;;;;23.30;51.74;100566.06;5081318;28;20063;-45
2021/08/04 10:42:09;;;;;;;6.03;3.40;;;;;;;22.98;52.16;100566.72;5082192;28;20414;-44
2021/08/04 10:44:36;;;;;;;3.28;2.97;;;;;;;23.03;52.38;100572.63;5082304;28;20500;-44
2021/08/04 10:47:04;;;;;;;5.97;3.50;;;;;;;23.06;52.48;100573.78;5081175;28;20040;-43
2021/08/04 10:49:35;;;;;;;8.10;3.60;;;;;;;23.13;52.29;100565.19;5082462;28;20051;-42
2021/08/04 10:52:04;;;;;;;4.20;3.40;;;;;;;23.21;52.33;100575.09;5081427;28;20551;-44
2021/08/04 10:54:32;;;;;;;9.05;3.90;;;;;;;23.04;52.34;100573.44;5081665;28;20101;-46
2021/08/04 10:57:02;;;;;;;6.47;3.75;;;;;;;22.80;52.49;100571.88;5081305;28;20147;-47
2021/08/04 10:59:30;;;;;;;7.93;3.78;;;;;;;22.46;52.80;100574.91;5063952;28;20135;-46
2021/08/04 11:02:03;;;;;;;7.43;3.65;;;;;;;22.54;53.16;100567.13;5081502;28;20135;-43
2021/08/04 11:04:30;;;;;;;8.30;3.85;;;;;;;22.73;53.25;100569.22;5083041;28;20979;-43
2021/08/04 11:07:12;;;;;;;4.30;3.20;;;;;;;23.00;52.60;100559.41;5082000;28;20047;-46
2021/08/04 11:09:49;;;;;;;9.18;3.15;;;;;;;23.16;52.75;100564.31;5081134;28;20561;-42
2021/08/04 11:12:43;;;;;;;5.47;3.50;;;;;;;23.18;52.13;100561.84;5081205;28;20119;-47
2021/08/04 11:15:28;;;;;;;5.47;3.75;;;;;;;22.91;51.87;100561.19;5080995;28;20040;-44
2021/08/04 11:17:57;;;;;;;5.30;3.55;;;;;;;22.67;53.09;100554.00;5080935;28;20036;-45
2021/08/04 11:20:24;;;;;;;5.35;3.70;;;;;;;22.54;53.26;100544.53;5081406;28;20097;-46
2021/08/04 11:22:53;;;;;;;6.35;3.55;;;;;;;22.37;53.64;100544.44;5081546;28;20832;-45
2021/08/04 11:25:36;;;;;;;5.40;3.40;;;;;;;22.48;53.46;100540.66;5081095;28;20043;-49
2021/08/04 11:28:14;;;;;;;5.57;3.90;;;;;;;22.58;53.58;100542.47;5080301;28;20044;-45
2021/08/04 11:30:54;;;;;;;6.70;3.65;;;;;;;22.38;52.34;100536.78;5081008;28;20115;-41
2021/08/04 11:33:22;;;;;;;7.85;3.78;;;;;;;22.07;53.67;100543.78;5081568;28;20046;-48
2021/08/04 11:35:58;;;;;;;3.75;3.22;;;;;;;21.96;54.05;100549.59;5061564;28;20550;-43